sensor_id;sensor_type;location;lat;lon;timestamp;pressure;altitude;pressure_sealevel;temperature;humidity
8061;BME280;4073;42.626;25.386;2022-07-29T00:00:08;97332.50;;;21.24;100.00
8061;BME280;4073;42.626;25.386;2022-07-29T00:02:34;97333.81;;;21.18;100.00
8061;BME280;4073;42.626;25.386;2022-07-29T00:05:00;97329.88;;;21.16;100.00
8061;BME280;4073;42.626;25.386;2022-07-29T00:07:25;97331.19;;;21.10;100.00
8061;BME280;4073;42.626;25.386;2022-07-29T00:09:51;97333.78;;;21.06;100.00
8061;BME280;4073;42.626;25.386;2022-07-29T00:12:16;97329.38;;;21.02;100.00
8061;BME280;4073;42.626;25.386;2022-07-29T00:14:42;97330.94;;;21.03;100.00
8061;BME280;4073;42.626;25.386;2022-07-29T00:17:08;97323.47;;;21.00;100.00
8061;BME280;4073;42.626;25.386;2022-07-29T00:19:33;97326.72;;;20.93;100.00
8061;BME280;4073;42.626;25.386;2022-07-29T00:21:59;97324.97;;;20.89;100.00
8061;BME280;4073;42.626;25.386;2022-07-29T00:24:25;97329.25;;;20.78;100.00
8061;BME280;4073;42.626;25.386;2022-07-29T00:26:50;97342.41;;;20.67;100.00
8061;BME280;4073;42.626;25.386;2022-07-29T00:29:16;97327.66;;;20.56;100.00
8061;BME280;4073;42.626;25.386;2022-07-29T00:31:41;97331.44;;;20.43;100.00
8061;BME280;4073;42.626;25.386;2022-07-29T00:34:07;97333.22;;;20.39;100.00
8061;BME280;4073;42.626;25.386;2022-07-29T00:36:52;97341.09;;;20.32;100.00
8061;BME280;4073;42.626;25.386;2022-07-29T00:39:18;97327.38;;;20.28;100.00
8061;BME280;4073;42.626;25.386;2022-07-29T00:41:43;97319.69;;;20.30;100.00
8061;BME280;4073;42.626;25.386;2022-07-29T00:44:08;97315.84;;;20.31;100.00
8061;BME280;4073;42.626;25.386;2022-07-29T00:46:34;97318.41;;;20.28;100.00
8061;BME280;4073;42.626;25.386;2022-07-29T00:48:59;97316.19;;;20.30;100.00
8061;BME280;4073;42.626;25.386;2022-07-29T00:51:26;97315.84;;;20.31;100.00
8061;BME280;4073;42.626;25.386;2022-07-29T00:53:52;97313.47;;;20.30;100.00
8061;BME280;4073;42.626;25.386;2022-07-29T00:56:18;97300.16;;;20.16;100.00
8061;BME280;4073;42.626;25.386;2022-07-29T00:58:47;97310.16;;;20.24;100.00
8061;BME280;4073;42.626;25.386;2022-07-29T01:01:13;97313.78;;;20.28;100.00
8061;BME280;4073;42.626;25.386;2022-07-29T01:03:38;97305.38;;;20.21;100.00
8061;BME280;4073;42.626;25.386;2022-07-29T01:06:04;97306.19;;;20.22;100.00
8061;BME280;4073;42.626;25.386;2022-07-29T01:08:31;97312.28;;;20.19;100.00
8061;BME280;4073;42.626;25.386;2022-07-29T01:10:59;97310.06;;;20.12;100.00
8061;BME280;4073;42.626;25.386;2022-07-29T01:13:25;97311.19;;;20.11;100.00
8061;BME280;4073;42.626;25.386;2022-07-29T01:15:55;97297.31;;;20.04;100.00
8061;BME280;4073;42.626;25.386;2022-07-29T01:18:30;97312.63;;;20.09;100.00
8061;BME280;4073;42.626;25.386;2022-07-29T01:29:58;97317.16;;;19.96;100.00
8061;BME280;4073;42.626;25.386;2022-07-29T01:32:28;97306.38;;;19.88;100.00
8061;BME280;4073;42.626;25.386;2022-07-29T01:37:42;97312.56;;;19.88;100.00
8061;BME280;4073;42.626;25.386;2022-07-29T01:40:17;97306.22;;;19.84;100.00
8061;BME280;4073;42.626;25.386;2022-07-29T01:43:09;97292.41;;;19.69;100.00
8061;BME280;4073;42.626;25.386;2022-07-29T01:46:13;97307.72;;;19.73;100.00
8061;BME280;4073;42.626;25.386;2022-07-29T01:48:48;97297.19;;;19.72;100.00
8061;BME280;4073;42.626;25.386;2022-07-29T01:51:20;97291.88;;;19.75;100.00
8061;BME280;4073;42.626;25.386;2022-07-29T01:53:57;97302.88;;;19.79;100.00
8061;BME280;4073;42.626;25.386;2022-07-29T01:56:25;97297.13;;;19.80;100.00
8061;BME280;4073;42.626;25.386;2022-07-29T01:58:55;97309.91;;;19.80;100.00
8061;BME280;4073;42.626;25.386;2022-07-29T02:01:24;97302.09;;;19.78;100.00
8061;BME280;4073;42.626;25.386;2022-07-29T02:03:52;97292.88;;;19.71;100.00
8061;BME280;4073;42.626;25.386;2022-07-29T02:06:21;97292.88;;;19.71;100.00
8061;BME280;4073;42.626;25.386;2022-07-29T02:08:49;97298.63;;;19.69;100.00
8061;BME280;4073;42.626;25.386;2022-07-29T02:11:15;97290.63;;;19.73;100.00
8061;BME280;4073;42.626;25.386;2022-07-29T02:13:42;97288.41;;;19.75;100.00
8061;BME280;4073;42.626;25.386;2022-07-29T02:16:09;97285.19;;;19.73;100.00
8061;BME280;4073;42.626;25.386;2022-07-29T02:18:41;97279.16;;;19.67;100.00
8061;BME280;4073;42.626;25.386;2022-07-29T02:21:09;97291.47;;;19.65;100.00
8061;BME280;4073;42.626;25.386;2022-07-29T02:23:35;97285.78;;;19.58;100.00
8061;BME280;4073;42.626;25.386;2022-07-29T02:26:03;97282.94;;;19.46;100.00
8061;BME280;4073;42.626;25.386;2022-07-29T02:28:29;97285.03;;;19.40;100.00
8061;BME280;4073;42.626;25.386;2022-07-29T02:30:58;97278.22;;;19.26;100.00
8061;BME280;4073;42.626;25.386;2022-07-29T02:33:25;97280.63;;;19.27;100.00
8061;BME280;4073;42.626;25.386;2022-07-29T02:35:51;97286.84;;;19.28;100.00
8061;BME280;4073;42.626;25.386;2022-07-29T02:38:18;97286.19;;;19.22;100.00
8061;BME280;4073;42.626;25.386;2022-07-29T02:41:09;97291.44;;;19.19;100.00
8061;BME280;4073;42.626;25.386;2022-07-29T02:43:37;97274.75;;;19.08;100.00
8061;BME280;4073;42.626;25.386;2022-07-29T02:46:13;97284.00;;;19.07;100.00
8061;BME280;4073;42.626;25.386;2022-07-29T02:48:45;97287.34;;;18.96;100.00
8061;BME280;4073;42.626;25.386;2022-07-29T02:51:18;97281.63;;;18.89;100.00
8061;BME280;4073;42.626;25.386;2022-07-29T02:53:48;97276.72;;;18.82;100.00
8061;BME280;4073;42.626;25.386;2022-07-29T02:56:16;97291.72;;;18.80;100.00
8061;BME280;4073;42.626;25.386;2022-07-29T02:58:54;97286.63;;;18.70;100.00
8061;BME280;4073;42.626;25.386;2022-07-29T03:01:23;97289.78;;;18.72;100.00
8061;BME280;4073;42.626;25.386;2022-07-29T03:03:52;97289.66;;;18.68;100.00
8061;BME280;4073;42.626;25.386;2022-07-29T03:06:19;97280.25;;;18.74;100.00
8061;BME280;4073;42.626;25.386;2022-07-29T03:08:46;97283.59;;;18.80;100.00
8061;BME280;4073;42.626;25.386;2022-07-29T03:11:12;97278.94;;;18.80;100.00
8061;BME280;4073;42.626;25.386;2022-07-29T03:13:39;97287.06;;;18.89;100.00
8061;BME280;4073;42.626;25.386;2022-07-29T03:16:05;97283.38;;;18.93;100.00
8061;BME280;4073;42.626;25.386;2022-07-29T03:18:32;97292.47;;;18.97;100.00
8061;BME280;4073;42.626;25.386;2022-07-29T03:20:58;97292.94;;;18.99;100.00
8061;BME280;4073;42.626;25.386;2022-07-29T03:23:24;97290.72;;;19.01;100.00
8061;BME280;4073;42.626;25.386;2022-07-29T03:25:51;97300.59;;;18.97;100.00
8061;BME280;4073;42.626;25.386;2022-07-29T03:28:16;97296.16;;;18.93;100.00
8061;BME280;4073;42.626;25.386;2022-07-29T03:30:42;97300.59;;;18.89;100.00
8061;BME280;4073;42.626;25.386;2022-07-29T03:33:07;97315.91;;;18.85;100.00
8061;BME280;4073;42.626;25.386;2022-07-29T03:35:33;97310.50;;;18.85;100.00
8061;BME280;4073;42.626;25.386;2022-07-29T03:37:58;97310.34;;;18.81;100.00
8061;BME280;4073;42.626;25.386;2022-07-29T03:40:31;97315.13;;;18.84;100.00
8061;BME280;4073;42.626;25.386;2022-07-29T03:42:59;97320.38;;;18.81;100.00
8061;BME280;4073;42.626;25.386;2022-07-29T03:45:26;97312.13;;;18.77;100.00
8061;BME280;4073;42.626;25.386;2022-07-29T03:47:59;97312.56;;;18.79;100.00
8061;BME280;4073;42.626;25.386;2022-07-29T03:50:28;97314.16;;;18.80;100.00
8061;BME280;4073;42.626;25.386;2022-07-29T03:52:55;97324.66;;;18.82;100.00
8061;BME280;4073;42.626;25.386;2022-07-29T03:55:21;97321.97;;;18.82;100.00
8061;BME280;4073;42.626;25.386;2022-07-29T03:57:48;97326.91;;;18.88;100.00
8061;BME280;4073;42.626;25.386;2022-07-29T04:00:14;97324.84;;;18.94;100.00
8061;BME280;4073;42.626;25.386;2022-07-29T04:02:43;97327.03;;;19.00;100.00
8061;BME280;4073;42.626;25.386;2022-07-29T04:05:13;97318.44;;;19.07;100.00
8061;BME280;4073;42.626;25.386;2022-07-29T04:07:48;97322.06;;;19.19;100.00
8061;BME280;4073;42.626;25.386;2022-07-29T04:10:14;97326.53;;;19.32;100.00
8061;BME280;4073;42.626;25.386;2022-07-29T04:12:44;97312.78;;;19.37;100.00
8061;BME280;4073;42.626;25.386;2022-07-29T04:15:10;97324.09;;;19.48;100.00
8061;BME280;4073;42.626;25.386;2022-07-29T04:17:35;97322.00;;;19.53;100.00
8061;BME280;4073;42.626;25.386;2022-07-29T04:20:01;97330.09;;;19.62;100.00
8061;BME280;4073;42.626;25.386;2022-07-29T04:22:26;97337.06;;;19.71;100.00
8061;BME280;4073;42.626;25.386;2022-07-29T04:24:51;97335.66;;;19.65;100.00
8061;BME280;4073;42.626;25.386;2022-07-29T04:27:17;97329.63;;;19.60;100.00
8061;BME280;4073;42.626;25.386;2022-07-29T04:29:42;97333.41;;;19.67;100.00
8061;BME280;4073;42.626;25.386;2022-07-29T04:32:08;97333.91;;;19.69;100.00
8061;BME280;4073;42.626;25.386;2022-07-29T04:34:33;97343.09;;;19.77;100.00
8061;BME280;4073;42.626;25.386;2022-07-29T04:36:58;97335.94;;;19.81;100.00
8061;BME280;4073;42.626;25.386;2022-07-29T04:39:24;97335.56;;;19.91;100.00
8061;BME280;4073;42.626;25.386;2022-07-29T04:41:50;97337.88;;;20.01;100.00
8061;BME280;4073;42.626;25.386;2022-07-29T04:44:15;97340.53;;;20.09;100.00
8061;BME280;4073;42.626;25.386;2022-07-29T04:46:41;97336.88;;;20.05;100.00
8061;BME280;4073;42.626;25.386;2022-07-29T04:49:06;97338.22;;;19.99;100.00
8061;BME280;4073;42.626;25.386;2022-07-29T04:51:33;97342.53;;;20.00;100.00
8061;BME280;4073;42.626;25.386;2022-07-29T04:53:59;97330.84;;;20.00;100.00
8061;BME280;4073;42.626;25.386;2022-07-29T04:56:25;97336.25;;;20.08;100.00
8061;BME280;4073;42.626;25.386;2022-07-29T04:58:50;97338.94;;;20.17;100.00
8061;BME280;4073;42.626;25.386;2022-07-29T05:01:15;97343.19;;;20.26;100.00
8061;BME280;4073;42.626;25.386;2022-07-29T05:03:41;97346.31;;;20.37;100.00
8061;BME280;4073;42.626;25.386;2022-07-29T05:06:06;97348.47;;;20.52;100.00
8061;BME280;4073;42.626;25.386;2022-07-29T05:08:32;97342.16;;;20.60;100.00
8061;BME280;4073;42.626;25.386;2022-07-29T05:10:58;97360.38;;;20.80;100.00
8061;BME280;4073;42.626;25.386;2022-07-29T05:13:23;97353.72;;;20.90;100.00
8061;BME280;4073;42.626;25.386;2022-07-29T05:15:49;97352.03;;;21.06;100.00
8061;BME280;4073;42.626;25.386;2022-07-29T05:18:14;97360.13;;;21.26;100.00
8061;BME280;4073;42.626;25.386;2022-07-29T05:20:40;97356.78;;;21.41;100.00
8061;BME280;4073;42.626;25.386;2022-07-29T05:23:06;97366.56;;;21.54;100.00
8061;BME280;4073;42.626;25.386;2022-07-29T05:25:31;97358.41;;;21.66;100.00
8061;BME280;4073;42.626;25.386;2022-07-29T05:27:57;97365.16;;;21.81;100.00
8061;BME280;4073;42.626;25.386;2022-07-29T05:30:23;97376.16;;;21.96;100.00
8061;BME280;4073;42.626;25.386;2022-07-29T05:32:49;97370.50;;;22.13;100.00
8061;BME280;4073;42.626;25.386;2022-07-29T05:35:15;97371.84;;;22.31;100.00
8061;BME280;4073;42.626;25.386;2022-07-29T05:37:41;97378.69;;;22.49;100.00
8061;BME280;4073;42.626;25.386;2022-07-29T05:40:07;97376.59;;;22.70;100.00
8061;BME280;4073;42.626;25.386;2022-07-29T05:42:33;97376.66;;;22.86;100.00
8061;BME280;4073;42.626;25.386;2022-07-29T05:44:59;97377.59;;;23.06;100.00
8061;BME280;4073;42.626;25.386;2022-07-29T05:47:25;97380.25;;;23.30;100.00
8061;BME280;4073;42.626;25.386;2022-07-29T05:49:50;97375.28;;;23.47;97.67
8061;BME280;4073;42.626;25.386;2022-07-29T05:52:16;97374.28;;;23.67;97.15
8061;BME280;4073;42.626;25.386;2022-07-29T05:54:42;97374.00;;;23.88;95.97
8061;BME280;4073;42.626;25.386;2022-07-29T05:57:08;97376.94;;;24.10;96.23
8061;BME280;4073;42.626;25.386;2022-07-29T05:59:37;97373.13;;;24.30;96.75
8061;BME280;4073;42.626;25.386;2022-07-29T06:02:03;97371.00;;;24.39;97.31
8061;BME280;4073;42.626;25.386;2022-07-29T06:04:31;97376.16;;;24.60;95.95
8061;BME280;4073;42.626;25.386;2022-07-29T06:06:56;97378.69;;;24.84;94.29
8061;BME280;4073;42.626;25.386;2022-07-29T06:09:22;97386.53;;;25.04;92.48
8061;BME280;4073;42.626;25.386;2022-07-29T06:11:48;97387.31;;;25.24;90.35
8061;BME280;4073;42.626;25.386;2022-07-29T06:14:14;97389.25;;;25.43;87.59
8061;BME280;4073;42.626;25.386;2022-07-29T06:16:40;97389.59;;;25.60;86.84
8061;BME280;4073;42.626;25.386;2022-07-29T06:19:05;97381.66;;;25.74;85.59
8061;BME280;4073;42.626;25.386;2022-07-29T06:21:31;97385.22;;;25.97;83.38
8061;BME280;4073;42.626;25.386;2022-07-29T06:23:56;97391.78;;;26.15;81.38
8061;BME280;4073;42.626;25.386;2022-07-29T06:26:22;97383.88;;;26.36;80.28
8061;BME280;4073;42.626;25.386;2022-07-29T06:28:48;97380.88;;;26.45;79.92
8061;BME280;4073;42.626;25.386;2022-07-29T06:31:13;97380.31;;;26.58;79.31
8061;BME280;4073;42.626;25.386;2022-07-29T06:33:39;97390.50;;;26.84;78.74
8061;BME280;4073;42.626;25.386;2022-07-29T06:36:05;97391.59;;;27.05;77.73
8061;BME280;4073;42.626;25.386;2022-07-29T06:38:31;97398.94;;;27.27;76.00
8061;BME280;4073;42.626;25.386;2022-07-29T06:40:58;97393.53;;;27.34;74.92
8061;BME280;4073;42.626;25.386;2022-07-29T06:43:40;97393.69;;;27.48;71.13
8061;BME280;4073;42.626;25.386;2022-07-29T06:46:14;97388.84;;;27.72;69.90
8061;BME280;4073;42.626;25.386;2022-07-29T06:48:41;97393.47;;;28.01;67.21
8061;BME280;4073;42.626;25.386;2022-07-29T06:51:10;97387.34;;;28.18;65.64
8061;BME280;4073;42.626;25.386;2022-07-29T06:53:37;97382.38;;;28.37;64.43
8061;BME280;4073;42.626;25.386;2022-07-29T06:56:05;97387.66;;;28.56;63.29
8061;BME280;4073;42.626;25.386;2022-07-29T06:58:30;97377.56;;;28.74;61.82
8061;BME280;4073;42.626;25.386;2022-07-29T07:00:57;97386.31;;;28.90;60.82
8061;BME280;4073;42.626;25.386;2022-07-29T07:03:23;97379.34;;;29.10;60.83
8061;BME280;4073;42.626;25.386;2022-07-29T07:05:48;97386.88;;;29.31;59.37
8061;BME280;4073;42.626;25.386;2022-07-29T07:08:14;97384.59;;;29.50;56.53
8061;BME280;4073;42.626;25.386;2022-07-29T07:10:42;97390.22;;;29.72;56.17
8061;BME280;4073;42.626;25.386;2022-07-29T07:13:07;97389.44;;;29.92;54.79
8061;BME280;4073;42.626;25.386;2022-07-29T07:15:33;97383.50;;;29.76;55.90
8061;BME280;4073;42.626;25.386;2022-07-29T07:17:59;97391.81;;;30.08;55.26
8061;BME280;4073;42.626;25.386;2022-07-29T07:20:25;97376.09;;;30.19;53.35
8061;BME280;4073;42.626;25.386;2022-07-29T07:22:50;97390.28;;;30.38;52.25
8061;BME280;4073;42.626;25.386;2022-07-29T07:25:16;97382.34;;;30.61;49.71
8061;BME280;4073;42.626;25.386;2022-07-29T07:27:43;97384.34;;;30.68;46.09
8061;BME280;4073;42.626;25.386;2022-07-29T07:30:09;97374.88;;;30.55;45.52
8061;BME280;4073;42.626;25.386;2022-07-29T07:32:35;97377.25;;;30.67;44.59
8061;BME280;4073;42.626;25.386;2022-07-29T07:35:01;97374.88;;;30.76;42.77
8061;BME280;4073;42.626;25.386;2022-07-29T07:37:26;97380.75;;;30.92;41.60
8061;BME280;4073;42.626;25.386;2022-07-29T07:39:52;97373.66;;;30.91;38.79
8061;BME280;4073;42.626;25.386;2022-07-29T07:42:18;97366.09;;;31.09;40.00
8061;BME280;4073;42.626;25.386;2022-07-29T07:44:44;97377.50;;;31.25;38.16
8061;BME280;4073;42.626;25.386;2022-07-29T07:47:14;97376.41;;;30.94;37.72
8061;BME280;4073;42.626;25.386;2022-07-29T07:49:40;97370.44;;;31.13;37.34
8061;BME280;4073;42.626;25.386;2022-07-29T07:52:05;97372.75;;;31.25;36.85
8061;BME280;4073;42.626;25.386;2022-07-29T07:54:31;97376.59;;;31.52;36.43
8061;BME280;4073;42.626;25.386;2022-07-29T07:56:56;97371.25;;;31.93;36.01
8061;BME280;4073;42.626;25.386;2022-07-29T07:59:22;97369.19;;;32.04;35.17
8061;BME280;4073;42.626;25.386;2022-07-29T08:01:47;97368.38;;;32.03;34.69
8061;BME280;4073;42.626;25.386;2022-07-29T08:04:13;97367.28;;;31.94;34.80
8061;BME280;4073;42.626;25.386;2022-07-29T08:06:38;97372.75;;;32.01;35.03
8061;BME280;4073;42.626;25.386;2022-07-29T08:09:04;97361.56;;;32.19;34.53
8061;BME280;4073;42.626;25.386;2022-07-29T08:11:30;97364.44;;;32.52;33.50
8061;BME280;4073;42.626;25.386;2022-07-29T08:13:56;97354.34;;;32.76;33.73
8061;BME280;4073;42.626;25.386;2022-07-29T08:16:21;97361.84;;;32.75;34.12
8061;BME280;4073;42.626;25.386;2022-07-29T08:18:47;97357.72;;;32.94;34.09
8061;BME280;4073;42.626;25.386;2022-07-29T08:21:16;97366.69;;;33.05;32.79
8061;BME280;4073;42.626;25.386;2022-07-29T08:23:43;97351.91;;;33.15;32.90
8061;BME280;4073;42.626;25.386;2022-07-29T08:26:14;97351.09;;;33.18;33.11
8061;BME280;4073;42.626;25.386;2022-07-29T08:28:42;97368.41;;;33.25;33.10
8061;BME280;4073;42.626;25.386;2022-07-29T08:31:11;97369.66;;;33.21;33.24
8061;BME280;4073;42.626;25.386;2022-07-29T08:33:36;97362.66;;;33.09;32.94
8061;BME280;4073;42.626;25.386;2022-07-29T08:36:02;97359.78;;;33.20;33.62
8061;BME280;4073;42.626;25.386;2022-07-29T08:38:28;97352.38;;;33.10;33.22
8061;BME280;4073;42.626;25.386;2022-07-29T08:40:53;97356.25;;;33.16;32.91
8061;BME280;4073;42.626;25.386;2022-07-29T08:43:19;97354.84;;;33.01;33.68
8061;BME280;4073;42.626;25.386;2022-07-29T08:45:49;97363.00;;;33.15;32.71
8061;BME280;4073;42.626;25.386;2022-07-29T08:48:23;97359.06;;;33.46;33.14
8061;BME280;4073;42.626;25.386;2022-07-29T08:50:53;97346.09;;;33.66;32.87
8061;BME280;4073;42.626;25.386;2022-07-29T08:53:21;97350.84;;;33.95;32.07
8061;BME280;4073;42.626;25.386;2022-07-29T08:55:48;97352.38;;;34.23;31.85
8061;BME280;4073;42.626;25.386;2022-07-29T08:58:15;97341.91;;;34.34;31.55
8061;BME280;4073;42.626;25.386;2022-07-29T09:00:45;97346.34;;;34.28;30.81
8061;BME280;4073;42.626;25.386;2022-07-29T09:03:16;97335.94;;;34.36;31.62
8061;BME280;4073;42.626;25.386;2022-07-29T09:05:43;97341.09;;;34.57;30.52
8061;BME280;4073;42.626;25.386;2022-07-29T09:08:10;97322.28;;;34.45;30.99
8061;BME280;4073;42.626;25.386;2022-07-29T09:10:36;97333.97;;;34.33;30.65
8061;BME280;4073;42.626;25.386;2022-07-29T09:13:02;97335.13;;;34.58;30.46
8061;BME280;4073;42.626;25.386;2022-07-29T09:15:27;97327.56;;;35.01;29.56
8061;BME280;4073;42.626;25.386;2022-07-29T09:17:53;97322.59;;;35.32;29.00
8061;BME280;4073;42.626;25.386;2022-07-29T09:20:21;97318.94;;;35.70;28.63
8061;BME280;4073;42.626;25.386;2022-07-29T09:22:48;97317.44;;;35.85;28.61
8061;BME280;4073;42.626;25.386;2022-07-29T09:28:13;97318.59;;;36.65;27.48
8061;BME280;4073;42.626;25.386;2022-07-29T09:30:53;97321.16;;;36.59;26.92
8061;BME280;4073;42.626;25.386;2022-07-29T09:33:18;97310.81;;;36.43;27.10
8061;BME280;4073;42.626;25.386;2022-07-29T09:35:44;97308.28;;;36.49;28.23
8061;BME280;4073;42.626;25.386;2022-07-29T09:38:13;97310.22;;;36.36;27.48
8061;BME280;4073;42.626;25.386;2022-07-29T09:40:39;97310.69;;;36.63;27.74
8061;BME280;4073;42.626;25.386;2022-07-29T09:43:12;97310.16;;;36.97;27.12
8061;BME280;4073;42.626;25.386;2022-07-29T09:45:38;97310.81;;;36.88;26.54
8061;BME280;4073;42.626;25.386;2022-07-29T09:48:21;97298.31;;;36.80;25.78
8061;BME280;4073;42.626;25.386;2022-07-29T09:50:48;97310.00;;;36.75;24.90
8061;BME280;4073;42.626;25.386;2022-07-29T09:53:44;97303.31;;;36.24;26.69
8061;BME280;4073;42.626;25.386;2022-07-29T09:56:09;97310.44;;;35.77;27.18
8061;BME280;4073;42.626;25.386;2022-07-29T09:58:35;97315.16;;;35.80;27.80
8061;BME280;4073;42.626;25.386;2022-07-29T10:01:01;97308.97;;;35.73;27.56
8061;BME280;4073;42.626;25.386;2022-07-29T10:03:27;97300.13;;;35.42;27.72
8061;BME280;4073;42.626;25.386;2022-07-29T10:06:06;97309.41;;;35.36;28.03
8061;BME280;4073;42.626;25.386;2022-07-29T10:08:32;97298.56;;;35.41;27.93
8061;BME280;4073;42.626;25.386;2022-07-29T10:11:16;97297.63;;;35.48;27.86
8061;BME280;4073;42.626;25.386;2022-07-29T10:13:43;97293.53;;;35.52;27.60
8061;BME280;4073;42.626;25.386;2022-07-29T10:16:09;97293.81;;;35.58;27.79
8061;BME280;4073;42.626;25.386;2022-07-29T10:18:38;97289.13;;;35.71;27.65
8061;BME280;4073;42.626;25.386;2022-07-29T10:21:04;97291.81;;;35.74;27.19
8061;BME280;4073;42.626;25.386;2022-07-29T10:23:30;97280.41;;;35.88;26.99
8061;BME280;4073;42.626;25.386;2022-07-29T10:25:56;97280.28;;;36.24;26.71
8061;BME280;4073;42.626;25.386;2022-07-29T10:28:22;97280.94;;;36.44;26.82
8061;BME280;4073;42.626;25.386;2022-07-29T10:30:50;97276.53;;;36.47;27.26
8061;BME280;4073;42.626;25.386;2022-07-29T10:36:24;97265.06;;;36.28;27.16
8061;BME280;4073;42.626;25.386;2022-07-29T10:42:36;97262.09;;;36.35;26.67
8061;BME280;4073;42.626;25.386;2022-07-29T10:44:55;97259.31;;;36.35;26.02
8061;BME280;4073;42.626;25.386;2022-07-29T10:47:22;97256.72;;;36.57;25.71
8061;BME280;4073;42.626;25.386;2022-07-29T10:49:56;97253.72;;;36.80;24.55
8061;BME280;4073;42.626;25.386;2022-07-29T10:52:22;97248.38;;;36.86;24.68
8061;BME280;4073;42.626;25.386;2022-07-29T10:54:50;97250.66;;;36.91;25.79
8061;BME280;4073;42.626;25.386;2022-07-29T10:57:23;97246.94;;;36.81;25.65
8061;BME280;4073;42.626;25.386;2022-07-29T11:05:06;97246.41;;;36.86;25.78
8061;BME280;4073;42.626;25.386;2022-07-29T11:07:34;97249.06;;;37.43;25.34
8061;BME280;4073;42.626;25.386;2022-07-29T11:15:05;97232.53;;;37.61;23.13
8061;BME280;4073;42.626;25.386;2022-07-29T11:23:33;97249.50;;;38.51;23.55
8061;BME280;4073;42.626;25.386;2022-07-29T11:26:19;97244.44;;;37.99;23.54
8061;BME280;4073;42.626;25.386;2022-07-29T11:29:02;97235.59;;;38.26;23.73
8061;BME280;4073;42.626;25.386;2022-07-29T11:34:19;97230.88;;;37.89;23.71
8061;BME280;4073;42.626;25.386;2022-07-29T11:39:37;97227.94;;;37.05;24.87
8061;BME280;4073;42.626;25.386;2022-07-29T11:47:24;97213.75;;;36.58;26.14
8061;BME280;4073;42.626;25.386;2022-07-29T11:49:51;97202.72;;;36.67;25.91
8061;BME280;4073;42.626;25.386;2022-07-29T11:52:17;97197.78;;;36.75;26.33
8061;BME280;4073;42.626;25.386;2022-07-29T11:54:43;97198.31;;;36.70;25.86
8061;BME280;4073;42.626;25.386;2022-07-29T11:57:09;97203.50;;;36.84;25.74
8061;BME280;4073;42.626;25.386;2022-07-29T11:59:41;97196.13;;;36.90;25.79
8061;BME280;4073;42.626;25.386;2022-07-29T12:02:08;97190.72;;;36.70;25.41
8061;BME280;4073;42.626;25.386;2022-07-29T12:04:47;97190.38;;;36.68;26.01
8061;BME280;4073;42.626;25.386;2022-07-29T12:07:13;97178.09;;;36.66;25.46
8061;BME280;4073;42.626;25.386;2022-07-29T12:09:38;97187.03;;;36.61;25.61
8061;BME280;4073;42.626;25.386;2022-07-29T12:12:04;97187.00;;;36.48;25.48
8061;BME280;4073;42.626;25.386;2022-07-29T12:14:31;97183.69;;;36.37;25.79
8061;BME280;4073;42.626;25.386;2022-07-29T12:16:58;97170.84;;;36.56;25.66
8061;BME280;4073;42.626;25.386;2022-07-29T12:19:23;97175.47;;;36.33;27.03
8061;BME280;4073;42.626;25.386;2022-07-29T12:21:52;97165.81;;;36.22;26.96
8061;BME280;4073;42.626;25.386;2022-07-29T12:24:18;97168.78;;;36.15;27.52
8061;BME280;4073;42.626;25.386;2022-07-29T12:26:52;97171.34;;;36.09;26.72
8061;BME280;4073;42.626;25.386;2022-07-29T12:29:18;97179.28;;;35.79;26.90
8061;BME280;4073;42.626;25.386;2022-07-29T12:31:44;97169.53;;;35.55;27.68
8061;BME280;4073;42.626;25.386;2022-07-29T12:34:11;97178.94;;;35.61;27.88
8061;BME280;4073;42.626;25.386;2022-07-29T12:36:37;97168.78;;;35.54;27.85
8061;BME280;4073;42.626;25.386;2022-07-29T12:39:03;97167.13;;;35.57;28.30
8061;BME280;4073;42.626;25.386;2022-07-29T12:41:29;97162.94;;;35.65;27.76
8061;BME280;4073;42.626;25.386;2022-07-29T12:43:55;97163.78;;;35.78;27.51
8061;BME280;4073;42.626;25.386;2022-07-29T12:46:20;97160.22;;;35.77;27.57
8061;BME280;4073;42.626;25.386;2022-07-29T12:48:50;97160.06;;;35.68;28.11
8061;BME280;4073;42.626;25.386;2022-07-29T12:51:31;97160.59;;;35.79;27.69
8061;BME280;4073;42.626;25.386;2022-07-29T12:54:08;97155.56;;;35.58;27.93
8061;BME280;4073;42.626;25.386;2022-07-29T12:56:39;97153.22;;;35.57;27.75
8061;BME280;4073;42.626;25.386;2022-07-29T12:59:20;97141.56;;;35.62;27.61
8061;BME280;4073;42.626;25.386;2022-07-29T13:01:47;97149.63;;;35.72;27.44
8061;BME280;4073;42.626;25.386;2022-07-29T13:04:33;97142.41;;;35.75;27.27
8061;BME280;4073;42.626;25.386;2022-07-29T13:07:07;97138.91;;;36.03;27.34
8061;BME280;4073;42.626;25.386;2022-07-29T13:09:43;97145.38;;;36.00;27.07
8061;BME280;4073;42.626;25.386;2022-07-29T13:12:12;97147.00;;;35.97;26.80
8061;BME280;4073;42.626;25.386;2022-07-29T13:14:44;97132.97;;;35.88;26.59
8061;BME280;4073;42.626;25.386;2022-07-29T13:17:14;97130.50;;;35.74;26.85
8061;BME280;4073;42.626;25.386;2022-07-29T13:19:48;97123.06;;;35.71;26.51
8061;BME280;4073;42.626;25.386;2022-07-29T13:22:19;97108.63;;;35.60;26.65
8061;BME280;4073;42.626;25.386;2022-07-29T13:27:15;97115.34;;;35.63;26.57
8061;BME280;4073;42.626;25.386;2022-07-29T13:29:40;97123.31;;;35.61;27.13
8061;BME280;4073;42.626;25.386;2022-07-29T13:32:06;97117.06;;;35.41;27.08
8061;BME280;4073;42.626;25.386;2022-07-29T13:34:32;97123.44;;;35.41;27.37
8061;BME280;4073;42.626;25.386;2022-07-29T13:36:58;97124.28;;;35.38;27.07
8061;BME280;4073;42.626;25.386;2022-07-29T13:39:23;97119.13;;;35.21;27.34
8061;BME280;4073;42.626;25.386;2022-07-29T13:41:49;97118.53;;;35.29;26.73
8061;BME280;4073;42.626;25.386;2022-07-29T13:44:14;97102.81;;;35.23;27.07
8061;BME280;4073;42.626;25.386;2022-07-29T13:46:40;97124.78;;;35.17;26.52
8061;BME280;4073;42.626;25.386;2022-07-29T13:49:05;97091.84;;;34.84;27.08
8061;BME280;4073;42.626;25.386;2022-07-29T13:51:30;97110.91;;;34.82;27.52
8061;BME280;4073;42.626;25.386;2022-07-29T13:53:56;97104.38;;;34.72;27.85
8061;BME280;4073;42.626;25.386;2022-07-29T13:56:21;97102.22;;;34.80;27.41
8061;BME280;4073;42.626;25.386;2022-07-29T13:58:47;97083.00;;;34.53;27.72
8061;BME280;4073;42.626;25.386;2022-07-29T14:01:12;97097.56;;;34.57;28.24